• Join FlightAware (Why Join?)
  • Login
  • US Flag 
Rudolph Flight #1: Arrived! 
02:59PM EST


 

Airport Tracker/Info


-or-


 

Live Flight TrackerFlight Track Log ✈ N712WB ✈ 25-Jun-2014 ✈ KMRY - KHDC

Flight Track Log - Related Links

Times and Time Zones

All times are in EDT time to prevent confusion due to time zone crossing. See the N712WB flight status page for this flight to view local times or setup timezone preferences in your user account.

Time Position Orientation Groundspeed Altitude Reporting Facility
EDT Latitude Longitude Course Direction KTS MPH feet Rate Location/Type
02:46PM 36.5833 -121.8000 90° East 194 223 1,500  Level Northern Cal TRACON
02:47PM 36.6333 -121.7833 15° North 232 267 4,000 2,400 Climbing Northern Cal TRACON
02:48PM 36.6833 -121.7333 39° Northeast 297 342 6,300 2,400 Climbing Northern Cal TRACON
02:49PM 36.6833 -121.6167 90° East 303 349 8,800 2,280 Climbing Northern Cal TRACON
02:50PM 36.6819 -121.5528 92° East 302 348 10,300 1,500 Climbing Oakland Center
02:51PM 36.6867 -121.4372 87° East 324 373 11,500 1,260 Climbing Oakland Center
02:52PM 36.6500 -120.8208 90° East  Level FlightAware Approximate
02:52PM 36.6919 -121.3083 87° East 360 414 12,900  Level Oakland Center
02:53PM 36.6986 -121.1742 86° East 381 438 14,600 1,560 Climbing Oakland Center
02:54PM 36.7039 -121.0383 87° East 387 445 16,200 1,380 Climbing Oakland Center
02:55PM 36.7008 -120.9006 92° East 396 456 17,500 1,320 Climbing Oakland Center
02:56PM 36.6989 -120.7269 91° East 412 474 19,000 1,380 Climbing Oakland Center
02:57PM 36.6964 -120.5803 91° East 417 480 20,400 1,440 Climbing Oakland Center
02:58PM 36.6936 -120.4306 91° East 428 493 22,000 1,440 Climbing Oakland Center
02:59PM 36.6908 -120.2764 91° East 433 498 23,400 1,320 Climbing Oakland Center
03:00PM 36.6872 -120.1219 92° East 443 510 24,800 1,320 Climbing Oakland Center
03:01PM 36.6836 -119.9614 92° East 453 521 26,200 1,320 Climbing Oakland Center
03:02PM 36.6794 -119.7983 92° East 463 533 27,600 1,500 Climbing Oakland Center
03:03PM 36.6756 -119.6347 92° East 470 541 29,300 1,380 Climbing Oakland Center
03:04PM 36.6711 -119.4689 92° East 472 543 30,500 1,260 Climbing Oakland Center
03:05PM 36.6656 -119.2647 92° East 487 560 31,900 1,260 Climbing Oakland Center
03:06PM 36.6606 -119.0881 92° East 502 578 33,200 1,140 Climbing Oakland Center
03:07PM 36.6539 -118.9092 93° East 511 588 34,300 1,260 Climbing Oakland Center
03:08PM 36.6500 -118.7300 91° East 514 592 35,900 1,320 Climbing Oakland Center
03:09PM 36.6450 -118.5525 92° East 514 592 37,100 1,560 Climbing Oakland Center
03:10PM 36.6378 -118.3483 92° East 515 593 39,100 1,560 Climbing Oakland Center
03:11PM 36.6300 -118.1711 93° East 515 593 40,400 900 Climbing Oakland Center
03:12PM 36.6242 -117.9939 92° East 515 593 41,000 240 Climbing Oakland Center
03:13PM 36.6161 -117.8125 93° East 519 597 41,000  Level Oakland Center
03:14PM 36.6075 -117.6219 93° East 541 623 41,000  Level Oakland Center
03:15PM 36.5981 -117.4269 93° East 559 643 41,000  Level Oakland Center
03:16PM 36.5897 -117.2356 93° East 560 644 41,000  Level Oakland Center
03:17PM 36.5814 -117.0431 93° East 559 643 41,000  Level Oakland Center
03:18PM 36.5703 -116.8119 93° East 559 643 41,000  Level Oakland Center
03:20PM 36.5317 -116.6258 104° East 558 642 41,000  Level Oakland Center
03:21PM 36.4586 -116.3764 110° East 562 647 41,000  Level Los Angeles Center
03:22PM 36.4025 -116.1903 110° East 562 647 41,000  Level Los Angeles Center
03:23PM 36.3472 -116.0150 111° Southeast 554 638 41,000  Level Los Angeles Center
03:24PM 36.2944 -115.8417 111° Southeast 555 639 41,000  Level Los Angeles Center
03:25PM 36.2269 -115.6300 112° Southeast 562 647 41,000  Level Los Angeles Center
03:26PM 36.1767 -115.4508 109° East 574 661 41,000  Level Los Angeles Center
03:27PM 36.1231 -115.2736 110° East 560 644 41,000  Level Los Angeles Center
03:28PM 36.0658 -115.0928 111° Southeast 567 652 41,000  Level Los Angeles Center
03:29PM 35.9994 -114.8778 111° Southeast 563 648 41,000  Level Los Angeles Center
03:30PM 35.9586 -114.6925 105° East 560 644 41,000  Level Los Angeles Center
03:31PM 35.9194 -114.5064 105° East 560 644 41,000  Level Los Angeles Center
03:32PM 35.8789 -114.3219 105° East 559 643 41,000  Level Los Angeles Center
03:33PM 35.8397 -114.1364 105° East 558 642 41,000  Level Los Angeles Center
03:34PM 35.7989 -113.9522 105° East 556 640 41,000  Level Los Angeles Center
03:35PM 35.7511 -113.7303 105° East 557 641 41,000  Level Los Angeles Center
03:36PM 35.7092 -113.5436 105° East 556 640 41,000  Level Los Angeles Center
03:37PM 35.6681 -113.3589 105° East 557 641 41,000  Level Los Angeles Center
03:38PM 35.6272 -113.1781 105° East 558 642 41,000  Level Los Angeles Center
03:40PM 35.5861 -112.9958 105° East 556 640 41,000  Level Los Angeles Center
03:41PM 35.5414 -112.8017 106° East 557 641 41,000  Level Los Angeles Center
03:42PM 35.4981 -112.6122 106° East 555 639 41,000  Level Los Angeles Center
03:43PM 35.4547 -112.4261 106° East 562 647 41,000  Level Los Angeles Center
03:44PM 35.4114 -112.2447 106° East 558 642 41,000  Level Los Angeles Center
03:45PM 35.3606 -112.0258 106° East 558 642 41,000  Level Los Angeles Center
03:46PM 35.3169 -111.8481 107° East 550 633 41,000  Level Los Angeles Center
03:47PM 35.2850 -111.6669 102° East 545 627 41,000  Level Los Angeles Center
03:48PM 35.2636 -111.5003 99° East 543 625 41,000  Level Albuquerque Center
03:49PM 35.2400 -111.3172 99° East 543 625 41,000  Level Albuquerque Center
03:50PM 35.2156 -111.1333 99° East 543 625 41,000  Level Albuquerque Center
03:51PM 35.1897 -110.9314 99° East 545 627 41,000  Level Albuquerque Center
03:52PM 35.1644 -110.7547 100° East 546 628 41,000  Level Albuquerque Center
03:53PM 35.1378 -110.5508 99° East 546 628 41,000  Level Albuquerque Center
03:54PM 35.1131 -110.3750 100° East 547 629 41,000  Level Albuquerque Center
03:55PM 35.0856 -110.1708 99° East 547 629 41,000  Level Albuquerque Center
03:56PM 35.0606 -109.9947 100° East 548 631 41,000  Level Albuquerque Center
03:57PM 35.0358 -109.8203 100° East 548 631 41,000  Level Albuquerque Center
03:58PM 35.0067 -109.6172 100° East 548 631 41,000  Level Albuquerque Center
03:59PM 34.9814 -109.4433 100° East 548 631 41,000  Level Albuquerque Center
04:00PM 34.9517 -109.2414 100° East 548 631 41,000  Level Albuquerque Center
04:01PM 34.9264 -109.0694 100° East 546 628 41,000  Level Albuquerque Center
04:02PM 34.8969 -108.8697 100° East 544 626 41,000  Level Albuquerque Center
04:03PM 34.8708 -108.6972 100° East 544 626 41,000  Level Albuquerque Center
04:04PM 34.8397 -108.4978 101° East 543 625 41,000  Level Albuquerque Center
04:05PM 34.8122 -108.3250 101° East 543 625 41,000  Level Albuquerque Center
04:06PM 34.7817 -108.1272 101° East 543 625 41,000  Level Albuquerque Center
04:07PM 34.7511 -107.9489 102° East 542 624 41,000  Level Albuquerque Center
04:08PM 34.7111 -107.7736 105° East 542 624 41,000  Level Albuquerque Center
04:09PM 34.6672 -107.5997 107° East 542 624 41,000  Level Albuquerque Center
04:10PM 34.6178 -107.3944 106° East 543 625 41,000  Level Albuquerque Center
04:11PM 34.5786 -107.2331 106° East 543 625 41,000  Level Albuquerque Center
04:12PM 34.5303 -107.0444 107° East 543 625 41,000  Level Albuquerque Center
04:13PM 34.4833 -106.8561 107° East 544 626 41,000 360 Level Albuquerque Center
04:14PM 34.4386 -106.6822 107° East 544 626 41,800 720 Climbing Albuquerque Center
04:15PM 34.3983 -106.5253 107° East 535 616 42,500 720 Climbing Albuquerque Center
04:16PM 34.3553 -106.3547 107° East 534 615 43,300 780 Climbing Albuquerque Center
04:18PM 34.3064 -106.1700 108° East 525 604 44,200 720 Climbing Albuquerque Center
04:19PM 34.2639 -106.0047 107° East 518 596 44,900 360 Climbing Albuquerque Center
04:20PM 34.2197 -105.8381 108° East 517 595 45,000  Climbing Albuquerque Center
04:21PM 34.1694 -105.6425 107° East 517 595 45,000  Level Albuquerque Center
04:22PM 34.1247 -105.4722 108° East 523 602 45,000  Level Albuquerque Center
04:23PM 34.0783 -105.3019 108° East 525 604 45,000  Level Albuquerque Center
04:24PM 34.0328 -105.1292 108° East 531 611 45,000  Level Albuquerque Center
04:25PM 33.9858 -104.9542 108° East 533 613 45,000  Level Albuquerque Center
04:26PM 33.9361 -104.7711 108° East 533 613 45,000  Level Albuquerque Center
04:27PM 33.8897 -104.6006 108° East 533 613 45,000  Level Albuquerque Center
04:28PM 33.8428 -104.4292 108° East 533 613 45,000  Level Albuquerque Center
04:29PM 33.7931 -104.2464 108° East 534 615 45,000  Level Albuquerque Center
04:30PM 33.7464 -104.0781 108° East 533 613 45,000  Level Albuquerque Center
04:31PM 33.6992 -103.9072 108° East 533 613 45,000  Level Albuquerque Center
04:32PM 33.6469 -103.7256 109° East 533 613 45,000  Level Albuquerque Center
04:33PM 33.6081 -103.5811 108° East 533 613 45,000  Level Albuquerque Center
04:34PM 33.5606 -103.4136 109° East 533 613 45,000  Level Albuquerque Center
04:35PM 33.5031 -103.2125 109° East 532 612 45,000  Level Albuquerque Center
04:36PM 33.4547 -103.0458 109° East 532 612 45,000  Level Albuquerque Center
04:37PM 33.3947 -102.8478 110° East 529 609 45,000  Level Fort Worth Center
04:38PM 33.3464 -102.6786 109° East 532 612 45,000  Level Fort Worth Center
04:39PM 33.2969 -102.5094 109° East 535 616 45,000  Level Fort Worth Center
04:40PM 33.2472 -102.3428 110° East 534 615 45,000  Level Fort Worth Center
04:41PM 33.1883 -102.1406 109° East 535 616 45,000  Level Fort Worth Center
04:43PM 33.1378 -101.9758 110° East 532 612 45,000  Level Fort Worth Center
04:44PM 33.0883 -101.8108 110° East 528 608 45,000  Level Fort Worth Center
04:45PM 33.0389 -101.6472 110° East 523 602 45,000  Level Fort Worth Center
04:46PM 32.9897 -101.4847 110° East 523 602 45,000  Level Fort Worth Center
04:47PM 32.9367 -101.3100 110° East 523 602 45,000  Level Fort Worth Center
04:48PM 32.8861 -101.1483 110° East 523 602 45,000  Level Fort Worth Center
04:49PM 32.8367 -100.9878 110° East 521 600 45,000  Level Fort Worth Center
04:50PM 32.7758 -100.7956 111° Southeast 520 598 45,000  Level Fort Worth Center
04:51PM 32.7267 -100.6364 110° East 516 594 45,000  Level Fort Worth Center
04:52PM 32.6767 -100.4789 111° Southeast 514 592 45,000  Level Fort Worth Center
04:53PM 32.6267 -100.3194 110° East 514 592 45,000  Level Fort Worth Center
04:54PM 32.5753 -100.1611 111° Southeast 517 595 45,000  Level Fort Worth Center
04:55PM 32.5133 -99.9717 111° Southeast 520 598 45,000  Level Fort Worth Center
04:56PM 32.4658 -99.8136 110° East 521 600 45,000  Level Fort Worth Center
04:57PM 32.4306 -99.6525 105° East 514 592 45,000  Level Fort Worth Center
04:58PM 32.3925 -99.4933 106° East 510 587 45,000  Level Fort Worth Center
04:59PM 32.3475 -99.3011 105° East 509 586 45,000  Level Fort Worth Center
05:01PM 32.2900 -99.0525 105° East 511 588 45,000  Level Houston Center
05:02PM 32.2503 -98.8928 106° East 511 588 45,000  Level Houston Center
05:03PM 32.2122 -98.7328 106° East 510 587 45,000  Level Houston Center
05:04PM 32.1731 -98.5736 106° East 507 583 45,000  Level Houston Center
05:05PM 32.1256 -98.3814 106° East 508 585 45,000  Level Houston Center
05:06PM 32.0861 -98.2206 106° East 508 585 45,000  Level Houston Center
05:07PM 32.0458 -98.0606 107° East 509 586 45,000  Level Houston Center
05:08PM 32.0078 -97.8958 105° East 517 595 45,000  Level Houston Center
05:09PM 31.9658 -97.7358 107° East 516 594 45,000  Level Houston Center
05:10PM 31.9253 -97.5761 107° East 511 588 45,000  Level Houston Center
05:11PM 31.8756 -97.3842 107° East 510 587 45,000  Level Houston Center
05:12PM 31.8347 -97.2236 107° East 510 587 45,000  Level Houston Center
05:13PM 31.7933 -97.0628 107° East 511 588 45,000  Level Houston Center
05:14PM 31.7525 -96.9008 106° East 512 589 45,000  Level Houston Center
05:15PM 31.7100 -96.7419 107° East 511 588 45,000  Level Houston Center
05:16PM 31.6686 -96.5833 107° East 509 586 45,000  Level Houston Center
05:17PM 31.6181 -96.3906 107° East 512 589 45,000  Level Houston Center
05:18PM 31.5747 -96.2308 108° East 513 590 45,000 -60 Level Houston Center
05:19PM 31.5336 -96.0769 107° East 512 589 44,900  Descending Houston Center
05:20PM 31.4931 -95.9214 107° East 507 583 45,000  Climbing Houston Center
05:21PM 31.4506 -95.7647 108° East 504 580 45,000 -60 Level Houston Center
05:22PM 31.3983 -95.5772 108° East 506 582 44,900  Descending Houston Center
05:24PM 31.3553 -95.4211 108° East 507 583 45,000  Climbing Houston Center
05:25PM 31.3142 -95.2678 107° East 500 575 45,000  Level Houston Center
05:26PM 31.2725 -95.1172 108° East 495 570 45,000  Level Houston Center
05:27PM 31.2308 -94.9669 108° East 492 566 45,000  Level Houston Center
05:28PM 31.1803 -94.7842 108° East 494 568 45,000  Level Houston Center
05:29PM 31.1489 -94.6347 104° East 505 581 45,000  Level Houston Center
05:30PM 31.1292 -94.4758 98° East 508 585 45,000  Level Houston Center
05:31PM 31.1042 -94.2833 99° East 508 585 45,000  Level Houston Center
05:32PM 31.0825 -94.1217 99° East 509 586 45,000  Level Houston Center
05:33PM 31.0597 -93.9597 99° East 510 587 45,000  Level Houston Center
05:34PM 31.0358 -93.7814 99° East 510 587 45,000  Level Houston Center
05:35PM 31.0128 -93.6175 99° East 511 588 45,000  Level Houston Center
05:36PM 30.9897 -93.4533 99° East 512 589 45,000  Level Houston Center
05:37PM 30.9658 -93.2889 100° East 512 589 45,000  Level Houston Center
05:38PM 30.9417 -93.1258 100° East 512 589 45,000  Level Houston Center
05:39PM 30.9156 -92.9475 100° East 513 590 45,000 -360 Level Houston Center
05:40PM 30.8919 -92.7850 100° East 514 592 44,300 -1,620 Descending Houston Center
05:41PM 30.8681 -92.6228 100° East 513 590 41,700 -3,000 Descending Houston Center
05:42PM 30.8383 -92.4247 100° East 519 597 38,200 -3,120 Descending Houston Center
05:43PM 30.8375 -92.2553 90° East 537 618 35,300 -3,120 Descending Houston Center
05:44PM 30.8489 -92.0858 85° East 535 616 31,800 -2,880 Descending Houston Center
05:45PM 30.8639 -91.9269 84° East 503 579 29,300 -2,280 Descending Houston Center
05:46PM 30.9039 -91.7492 75° East 478 550 27,100 -1,200 Descending Houston Center
05:47PM 30.9381 -91.6039 75° East 472 543 26,900 -1,800 Descending Houston Center
05:48PM 30.9683 -91.4597 76° East 466 536 23,400 -3,780 Descending Houston Center
05:49PM 31.0011 -91.3147 75° East 466 536 19,200 -3,780 Descending Houston Center
05:50PM 31.0272 -91.1906 76° East 422 486 15,600 -3,600 Descending Houston Center
05:52PM 31.0058 -91.0519 100° East 369 425 11,800 -2,820 Descending Houston Center
05:53PM 30.9661 -90.9547 115° Southeast 335 386 9,800 -1,800 Descending Houston Center
05:54PM 30.9242 -90.8636 118° Southeast 323 372 8,200 -1,620 Descending Houston Center
05:55PM 30.8908 -90.7728 113° Southeast 311 358 6,500 -1,440 Descending Houston Center
05:56PM 30.8422 -90.6619 117° Southeast 276 318 5,000 -1,080 Descending Houston Center
05:57PM 30.7928 -90.6056 136° Southeast 249 287 4,100 -1,140 Descending Houston Center
05:58PM 30.7328 -90.5569 145° Southeast 262 302 2,800 -1,020 Descending Houston Center
05:59PM 30.6792 -90.5222 151° Southeast 258 297 2,200 -720 Descending Houston Center